메인 페이지
METAR-TAF:

METAR-TAF

공항 :

Nawabshah, 파키스탄

위도: 26-15N, 경도: 068-22E, 고도: 37m

현재 날씨관측

예보는 26분 전, 00:00시(UTC)에 발표되었습니다.
남동4kt
온도 24°C
습도 74%
기압 1004 hPa
시정: 4000m
연무

METAR: OPNH 220000Z 13504KT 4000 HZ NSC 24/19 Q1004 NOSIG

시각: 05:26 (00:26 UTC)

예보

예보는 2 시간 56분 전, 21:30시(UTC)에 발표되었습니다.
예보 대상 시간: 22일 00시부터 23일 06시까지 (UTC)
북서10kt
시정: 6000m
일시적
22일 00시부터 22일 04시까지 (UTC)
북북서8kt
시정: 4000m
연무
22일 1500시부터 (UTC)
5kt
시정: 4000m
연무

TAF: OPNH 212130Z 2200/2306 32010KT 6000 NSC TEMPO 2200/2204 33008KT 4000 HZ NSC FM221500 09005KT 4000 HZ NSC

4,000개 이상의 공항 관측 자료 및 예보 (METAR 및 TAF 보고).

지도상에서 검색 가능한 기상관측소가 노란 점과 빨간 점으로 표시되어 있습니다.

기상관측소 명을 보려면 표시 위로 마우스를 이동하세요.

날씨 관측과 예보를 보려면 클릭하세요.

지도 변경 : 확대하려면 엑스 표시가 있는 녹색 버튼, 축소하려면 빼기 표시가 있는 녹색 버튼, 다음 페이지의 지도를 보려면 녹색 화살표를 클릭하세요.


METAR-TAF: